createdAt,value
2022-10-01T13:16:58.394Z,29.85
2022-10-01T13:17:35.926Z,32.75
2022-10-01T13:18:14.067Z,33.10
2022-10-01T13:18:56.397Z,30.08
2022-10-01T13:19:33.998Z,32.58
2022-10-01T13:20:12.855Z,31.83
2022-10-01T13:20:54.754Z,33.17
2022-10-01T13:21:33.431Z,29.25
2022-10-01T13:22:10.820Z,30.52
2022-10-01T13:22:47.640Z,28.13
2022-10-01T13:23:27.872Z,29.70
2022-10-01T13:24:04.529Z,30.42
2022-10-01T13:24:42.753Z,28.67
2022-10-01T13:25:23.657Z,26.65
2022-10-01T13:26:03.931Z,34.22
2022-10-01T13:26:42.617Z,27.42
2022-10-01T13:27:20.590Z,30.23
2022-10-01T13:27:57.519Z,28.77
2022-10-01T13:28:37.690Z,27.85
2022-10-01T13:29:18.966Z,29.55
2022-10-01T13:29:59.340Z,28.88
2022-10-01T13:30:36.506Z,31.90
2022-10-01T13:31:12.766Z,30.50
2022-10-01T13:31:58.388Z,27.98
2022-10-01T13:32:33.907Z,31.02
2022-10-01T13:33:23.788Z,29.95
2022-10-01T13:33:57.743Z,31.80
2022-10-01T13:34:38.911Z,29.60
2022-10-01T13:35:25.608Z,28.02
2022-10-01T13:36:00.436Z,28.42
2022-10-01T13:36:36.889Z,29.95
2022-10-01T13:37:12.189Z,29.67
2022-10-01T13:37:48.216Z,31.17
2022-10-01T13:38:29.919Z,31.02
2022-10-01T13:39:03.911Z,33.17
2022-10-01T13:39:44.202Z,35.42
2022-10-01T13:40:23.450Z,31.25
2022-10-01T13:41:02.092Z,27.33
2022-10-01T13:41:36.077Z,28.42
2022-10-01T13:42:17.489Z,28.92
2022-10-01T13:42:52.827Z,26.50
2022-10-01T13:43:26.501Z,28.33
2022-10-01T13:44:06.303Z,30.73
2022-10-01T13:44:41.487Z,28.83
2022-10-01T13:45:22.157Z,31.83
2022-10-01T13:45:59.062Z,35.38
2022-10-01T13:46:35.174Z,30.27
2022-10-01T13:47:13.926Z,32.22
2022-10-01T13:47:48.954Z,30.08
2022-10-01T13:48:24.698Z,30.15
2022-10-01T13:49:03.670Z,28.27
2022-10-01T13:49:38.564Z,26.38
2022-10-01T13:50:23.252Z,30.08
2022-10-01T13:51:03.767Z,28.30
2022-10-01T13:51:39.237Z,27.50
2022-10-01T13:52:20.498Z,23.55
2022-10-01T13:53:06.518Z,25.90
2022-10-01T13:53:48.093Z,26.88
2022-10-01T13:54:28.310Z,32.15
2022-10-01T13:55:02.510Z,25.73
2022-10-01T13:55:43.047Z,27.65
2022-10-01T13:56:30.442Z,28.60
2022-10-01T13:57:10.521Z,27.83
2022-10-01T13:57:46.286Z,29.50
2022-10-01T13:58:23.525Z,30.05
2022-10-01T13:58:57.871Z,28.05
2022-10-01T13:59:34.710Z,25.30
2022-10-01T14:00:23.717Z,25.58
2022-10-01T14:01:01.399Z,24.23
2022-10-01T14:01:41.636Z,26.90
2022-10-01T14:02:34.740Z,25.30
2022-10-01T14:03:28.084Z,23.30
2022-10-01T14:04:06.795Z,26.30
2022-10-01T14:04:40.036Z,25.38
2022-10-01T14:05:42.901Z,27.40
2022-10-01T14:06:19.510Z,25.13
2022-10-01T14:06:55.770Z,22.42
2022-10-01T14:07:32.171Z,25.13
2022-10-01T14:08:11.803Z,23.67
2022-10-01T14:08:49.031Z,26.73
2022-10-01T14:09:24.252Z,24.60
2022-10-01T14:10:00.549Z,26.83
2022-10-01T14:10:36.941Z,25.55
2022-10-01T14:11:31.339Z,27.20
2022-10-01T14:12:26.510Z,24.83
2022-10-01T14:13:22.448Z,26.13
2022-10-01T14:14:15.793Z,25.50
2022-10-01T14:15:10.976Z,25.33
2022-10-01T14:16:03.448Z,25.38
2022-10-01T14:16:38.334Z,26.10
2022-10-01T14:17:13.792Z,27.20
2022-10-01T14:17:49.996Z,24.13
2022-10-01T14:18:28.849Z,26.80
2022-10-01T14:19:04.662Z,25.60
2022-10-01T14:19:38.927Z,26.52
2022-10-01T14:20:19.973Z,26.77
2022-10-01T14:20:59.006Z,26.92
2022-10-01T14:21:42.164Z,27.88
2022-10-01T14:22:20.346Z,28.17
2022-10-01T14:23:03.721Z,26.23
2022-10-01T14:23:40.844Z,23.95
2022-10-01T14:24:24.454Z,23.08
2022-10-01T14:25:24.375Z,25.30
2022-10-01T14:26:02.054Z,21.85
2022-10-01T14:26:39.037Z,27.63
2022-10-01T14:27:18.504Z,25.15
2022-10-01T14:28:01.654Z,26.95
2022-10-01T14:28:41.587Z,25.10
2022-10-01T14:29:19.750Z,85.18
2022-10-01T14:30:03.830Z,44.25
2022-10-01T14:30:41.310Z,33.00
2022-10-01T14:31:18.870Z,31.40
2022-10-01T14:32:00.351Z,27.08
2022-10-01T14:32:39.349Z,25.13
2022-10-01T14:33:29.433Z,24.58
2022-10-01T14:34:16.311Z,26.17
2022-10-01T14:35:00.837Z,25.65
2022-10-01T14:35:35.797Z,23.95
2022-10-01T14:36:13.796Z,26.10
2022-10-01T14:36:48.917Z,28.75
2022-10-01T14:37:24.029Z,25.85
2022-10-01T14:38:02.119Z,28.00
2022-10-01T14:38:36.785Z,26.23
2022-10-01T14:39:16.598Z,24.23
2022-10-01T14:40:01.888Z,25.52
2022-10-01T14:40:39.782Z,27.17
2022-10-01T14:41:19.657Z,26.38
2022-10-01T14:41:54.266Z,23.35
2022-10-01T14:42:29.019Z,28.02
2022-10-01T14:43:03.505Z,23.63
2022-10-01T14:43:42.183Z,30.30
2022-10-01T14:44:21.189Z,26.70
2022-10-01T14:44:57.719Z,28.25
2022-10-01T14:45:30.935Z,23.52
2022-10-01T14:46:06.169Z,23.75
2022-10-01T14:46:42.885Z,21.75
2022-10-01T14:47:20.377Z,23.13
2022-10-01T14:48:04.357Z,24.65
2022-10-01T14:48:41.012Z,25.67
2022-10-01T14:49:21.591Z,28.63
2022-10-01T14:49:57.581Z,25.48
2022-10-01T14:50:32.084Z,26.13
2022-10-01T14:51:07.423Z,25.20
2022-10-01T14:51:51.247Z,27.75
2022-10-01T14:52:27.396Z,23.85
2022-10-01T14:53:02.646Z,25.40
2022-10-01T14:53:37.936Z,24.40
2022-10-01T14:54:12.469Z,24.80
2022-10-01T14:54:48.817Z,26.35
2022-10-01T14:55:24.731Z,27.65
2022-10-01T14:56:07.116Z,26.17
2022-10-01T14:56:43.378Z,28.42
2022-10-01T14:57:21.176Z,25.52
2022-10-01T14:57:57.742Z,25.25
2022-10-01T14:58:34.288Z,27.67
2022-10-01T14:59:11.883Z,24.77
2022-10-01T14:59:50.253Z,29.35
2022-10-01T15:00:28.967Z,26.30
2022-10-01T15:01:04.549Z,25.40
2022-10-01T15:01:38.962Z,24.75
2022-10-01T15:02:19.057Z,26.70
2022-10-01T15:02:55.899Z,27.65
2022-10-01T15:03:37.628Z,27.05
2022-10-01T15:04:16.114Z,29.95
2022-10-01T15:04:53.509Z,28.33
2022-10-01T15:05:28.691Z,25.25
2022-10-01T15:06:05.322Z,25.20
2022-10-01T15:06:43.327Z,26.33
2022-10-01T15:07:18.458Z,26.00
2022-10-01T15:07:54.049Z,27.35
2022-10-01T15:08:37.190Z,27.80
2022-10-01T15:09:19.295Z,32.67
2022-10-01T15:09:53.925Z,27.98
2022-10-01T15:10:29.930Z,31.00
2022-10-01T15:11:06.983Z,29.83
2022-10-01T15:11:44.738Z,26.33
2022-10-01T15:12:21.723Z,27.10
2022-10-01T15:12:57.062Z,27.05
2022-10-01T15:13:35.925Z,27.25
2022-10-01T15:14:12.462Z,25.73
2022-10-01T15:14:47.580Z,30.83
2022-10-01T15:15:22.538Z,29.77
2022-10-01T15:15:57.611Z,27.02
2022-10-01T15:16:34.050Z,25.02
2022-10-01T15:17:09.536Z,26.42
2022-10-01T15:17:44.563Z,28.83
2022-10-01T15:18:20.703Z,27.27
2022-10-01T15:18:57.205Z,28.85
2022-10-01T15:19:31.862Z,25.73
2022-10-01T15:20:08.000Z,34.67
2022-10-01T15:20:51.640Z,25.42
2022-10-01T15:21:26.876Z,28.70
2022-10-01T15:22:02.824Z,29.02
2022-10-01T15:22:40.152Z,28.25
2022-10-01T15:23:15.494Z,28.15
2022-10-01T15:23:50.995Z,27.80
2022-10-01T15:24:27.919Z,29.08
2022-10-01T15:25:03.130Z,27.70
2022-10-01T15:25:37.453Z,28.17
2022-10-01T15:26:14.122Z,28.70
2022-10-01T15:26:49.989Z,28.77
2022-10-01T15:27:24.330Z,28.13
2022-10-01T15:28:00.603Z,30.08
2022-10-01T15:28:36.788Z,28.20
2022-10-01T15:29:15.646Z,29.05
2022-10-01T15:29:56.210Z,28.75
2022-10-01T15:30:32.994Z,27.33
2022-10-01T15:31:07.327Z,31.45
2022-10-01T15:31:41.203Z,27.67
2022-10-01T15:32:17.592Z,25.95
2022-10-01T15:32:51.818Z,33.97
2022-10-01T15:33:28.449Z,29.23
2022-10-01T15:34:04.124Z,32.70
2022-10-01T15:34:39.321Z,37.47
2022-10-01T15:35:20.566Z,31.40
2022-10-01T15:35:56.992Z,34.47
2022-10-01T15:36:32.351Z,28.00
2022-10-01T15:37:07.998Z,30.38
2022-10-01T15:37:45.712Z,32.13
2022-10-01T15:38:25.200Z,32.20
2022-10-01T15:39:01.335Z,35.05
2022-10-01T15:39:38.069Z,35.00
2022-10-01T15:40:28.023Z,36.33
2022-10-01T15:41:58.655Z,44.40
2022-10-01T15:42:34.512Z,49.58
2022-10-01T15:43:27.754Z,42.55
2022-10-01T15:44:04.325Z,42.40
2022-10-01T15:44:47.403Z,46.30
2022-10-01T15:45:26.585Z,41.92
2022-10-01T15:46:20.001Z,37.40
2022-10-01T15:46:54.324Z,36.08
2022-10-01T15:47:35.700Z,41.65
2022-10-01T15:48:29.507Z,44.65
2022-10-01T15:49:17.338Z,36.85
2022-10-01T15:50:17.154Z,42.38
2022-10-01T15:51:00.738Z,40.97
2022-10-01T15:51:34.684Z,44.70
2022-10-01T15:52:37.934Z,44.25
2022-10-01T15:53:18.834Z,42.55
2022-10-01T15:53:54.046Z,43.30
2022-10-01T15:54:29.062Z,39.97
2022-10-01T15:55:04.490Z,41.95
2022-10-01T15:55:42.108Z,43.28
2022-10-01T15:56:20.797Z,39.88
2022-10-01T15:56:55.583Z,41.22
2022-10-01T15:57:33.903Z,44.53
2022-10-01T15:58:15.128Z,46.88
2022-10-01T15:58:51.817Z,44.78
2022-10-01T15:59:27.608Z,41.65
2022-10-01T16:00:02.208Z,44.47
2022-10-01T16:00:45.644Z,43.65
2022-10-01T16:01:24.499Z,38.90
2022-10-01T16:01:58.470Z,40.42
2022-10-01T16:02:33.997Z,47.78
2022-10-01T16:03:20.368Z,50.20
2022-10-01T16:03:58.189Z,43.67
2022-10-01T16:04:31.013Z,48.53
2022-10-01T16:05:06.674Z,48.65
2022-10-01T16:05:49.707Z,45.88
2022-10-01T16:06:27.798Z,47.58
2022-10-01T16:07:02.649Z,43.47
2022-10-01T16:07:38.222Z,43.38
2022-10-01T16:08:22.170Z,44.53
2022-10-01T16:09:22.972Z,43.83
2022-10-01T16:09:59.353Z,46.17
2022-10-01T16:10:38.554Z,45.30
2022-10-01T16:11:20.588Z,45.22
2022-10-01T16:11:58.279Z,40.60
2022-10-01T16:12:33.589Z,39.85
2022-10-01T16:13:38.368Z,42.97
2022-10-01T16:14:25.221Z,44.25
2022-10-01T16:15:01.106Z,45.75
2022-10-01T16:15:35.853Z,49.95
2022-10-01T16:16:27.452Z,49.95
2022-10-01T16:17:27.079Z,44.03
2022-10-01T16:18:03.284Z,49.67
2022-10-01T16:18:39.196Z,46.22
2022-10-01T16:19:29.177Z,48.90
2022-10-01T16:20:46.830Z,64.47
2022-10-01T16:21:26.593Z,48.13
2022-10-01T16:22:22.561Z,46.00
2022-10-01T16:23:27.508Z,45.58
2022-10-01T16:24:02.562Z,46.47
2022-10-01T16:24:43.579Z,49.08
2022-10-01T16:25:33.398Z,47.85
2022-10-01T16:26:31.492Z,43.55
2022-10-01T16:27:15.889Z,48.83
2022-10-01T16:27:53.911Z,42.35
2022-10-01T16:28:30.692Z,46.95
2022-10-01T16:29:07.354Z,46.75
2022-10-01T16:29:42.364Z,45.60
2022-10-01T16:30:22.060Z,51.40
2022-10-01T16:30:56.561Z,42.78
2022-10-01T16:31:31.573Z,45.15
2022-10-01T16:32:06.809Z,44.00
2022-10-01T16:32:41.548Z,40.60
2022-10-01T16:33:16.290Z,48.70
2022-10-01T16:33:50.140Z,40.83
2022-10-01T16:34:25.137Z,48.28
2022-10-01T16:35:17.783Z,41.08
2022-10-01T16:35:51.846Z,39.33
2022-10-01T16:36:27.092Z,43.00
2022-10-01T16:37:01.868Z,45.03
2022-10-01T16:37:36.421Z,43.40
2022-10-01T16:38:10.423Z,43.17
2022-10-01T16:38:45.597Z,39.90
2022-10-01T16:39:19.476Z,44.80
2022-10-01T16:39:55.313Z,38.92
2022-10-01T16:40:32.139Z,56.65
2022-10-01T16:41:06.834Z,50.22
2022-10-01T16:41:42.803Z,52.25
2022-10-01T16:42:24.587Z,48.22
2022-10-01T16:42:58.680Z,37.33
2022-10-01T16:43:34.026Z,42.03
2022-10-01T16:44:07.852Z,39.78
2022-10-01T16:44:41.605Z,38.97
2022-10-01T16:45:19.046Z,39.00
2022-10-01T16:45:53.909Z,42.47
2022-10-01T16:46:26.459Z,41.30
2022-10-01T16:47:01.457Z,45.63
2022-10-01T16:47:41.019Z,41.13
2022-10-01T16:48:20.271Z,40.58
2022-10-01T16:48:52.857Z,45.45
2022-10-01T16:49:27.618Z,42.03
2022-10-01T16:50:02.077Z,40.72
2022-10-01T16:50:35.997Z,41.72
2022-10-01T16:51:11.462Z,45.72
2022-10-01T16:51:53.495Z,45.72
2022-10-01T16:52:28.028Z,44.15
2022-10-01T16:53:02.699Z,42.00
2022-10-01T16:53:37.044Z,40.83
2022-10-01T16:54:24.353Z,45.05
2022-10-01T16:54:58.909Z,45.15
2022-10-01T16:55:36.613Z,44.70
2022-10-01T16:56:11.326Z,47.58
2022-10-01T16:56:46.682Z,60.42
2022-10-01T16:57:20.595Z,46.45
2022-10-01T16:57:56.237Z,44.92
2022-10-01T16:58:30.645Z,47.03
2022-10-01T16:59:03.466Z,43.97
2022-10-01T16:59:40.464Z,42.25
2022-10-01T17:00:20.435Z,44.55
2022-10-01T17:00:53.861Z,43.15
2022-10-01T17:01:31.065Z,51.17
2022-10-01T17:02:05.344Z,52.25
2022-10-01T17:02:40.984Z,50.35
2022-10-01T17:03:17.763Z,47.35
2022-10-01T17:03:52.163Z,52.30
2022-10-01T17:04:33.510Z,52.50
2022-10-01T17:05:18.842Z,48.53
2022-10-01T17:05:54.429Z,52.78
2022-10-01T17:06:28.080Z,47.13
2022-10-01T17:07:04.811Z,46.92
2022-10-01T17:07:39.359Z,50.60
2022-10-01T17:08:12.872Z,56.33
2022-10-01T17:08:47.064Z,53.28
2022-10-01T17:09:20.906Z,55.67
2022-10-01T17:09:55.514Z,58.33
2022-10-01T17:10:31.756Z,57.22
2022-10-01T17:11:08.528Z,52.08
2022-10-01T17:11:47.744Z,51.90
2022-10-01T17:12:21.939Z,57.00
2022-10-01T17:12:56.348Z,57.58
2022-10-01T17:13:33.336Z,56.17
2022-10-01T17:14:08.833Z,57.10
2022-10-01T17:14:43.796Z,59.88
2022-10-01T17:15:20.761Z,51.28
2022-10-01T17:15:56.108Z,57.88
2022-10-01T17:16:31.113Z,57.42
2022-10-01T17:17:05.069Z,52.67
2022-10-01T17:17:41.616Z,53.30
2022-10-01T17:18:15.590Z,55.22
2022-10-01T17:18:49.189Z,52.75
2022-10-01T17:19:24.222Z,54.65
2022-10-01T17:19:58.212Z,52.35
2022-10-01T17:20:32.393Z,55.20
2022-10-01T17:21:08.211Z,49.83
2022-10-01T17:21:42.286Z,51.28
2022-10-01T17:22:18.830Z,49.72
2022-10-01T17:22:52.994Z,48.50
2022-10-01T17:23:28.496Z,54.80
2022-10-01T17:24:03.629Z,51.50
2022-10-01T17:24:40.888Z,51.35
2022-10-01T17:25:16.799Z,53.58
2022-10-01T17:25:51.180Z,58.17
2022-10-01T17:26:26.459Z,57.28
2022-10-01T17:27:00.868Z,49.80
2022-10-01T17:27:36.721Z,46.53
2022-10-01T17:28:14.582Z,47.83
2022-10-01T17:28:51.194Z,49.03
2022-10-01T17:29:25.441Z,51.47
2022-10-01T17:30:00.499Z,48.17
2022-10-01T17:30:34.254Z,48.58
2022-10-01T17:31:08.771Z,44.28
2022-10-01T17:31:44.817Z,45.97
2022-10-01T17:32:19.774Z,46.15
2022-10-01T17:32:53.709Z,47.67
2022-10-01T17:33:29.403Z,49.35
2022-10-01T17:34:06.202Z,50.45
2022-10-01T17:34:41.215Z,44.63
2022-10-01T17:35:16.612Z,44.45
2022-10-01T17:35:55.267Z,41.45
2022-10-01T17:36:29.754Z,42.25
2022-10-01T17:37:04.176Z,39.70
2022-10-01T17:37:39.300Z,40.45
2022-10-01T17:38:13.079Z,39.92
2022-10-01T17:38:48.591Z,50.38
2022-10-01T17:39:22.673Z,44.95
2022-10-01T17:39:56.330Z,40.35
2022-10-01T17:40:31.804Z,38.50
2022-10-01T17:41:06.819Z,36.20
2022-10-01T17:41:43.447Z,41.40
2022-10-01T17:42:18.724Z,40.67
2022-10-01T17:42:52.563Z,36.95
2022-10-01T17:43:27.277Z,38.30
2022-10-01T17:44:02.972Z,39.22
2022-10-01T17:44:37.530Z,35.42
2022-10-01T17:45:14.765Z,36.10
2022-10-01T17:45:57.706Z,36.85
2022-10-01T17:46:33.612Z,34.40
2022-10-01T17:47:12.129Z,42.03
2022-10-01T17:47:49.837Z,37.13
2022-10-01T17:48:23.904Z,38.33
2022-10-01T17:49:00.502Z,39.50
2022-10-01T17:49:35.385Z,36.60
2022-10-01T17:50:10.781Z,38.88
2022-10-01T17:50:45.191Z,38.90
2022-10-01T17:51:19.988Z,37.28
2022-10-01T17:51:55.284Z,41.05
2022-10-01T17:52:29.871Z,41.97
2022-10-01T17:53:06.842Z,39.00
2022-10-01T17:53:42.753Z,36.78
2022-10-01T17:54:20.536Z,38.05
2022-10-01T17:54:54.360Z,39.78
2022-10-01T17:55:29.696Z,41.42
2022-10-01T17:56:07.509Z,37.85
2022-10-01T17:56:44.808Z,39.95
2022-10-01T17:57:19.964Z,39.80
2022-10-01T17:57:54.865Z,36.90
2022-10-01T17:58:29.221Z,41.22
2022-10-01T17:59:04.979Z,39.05
2022-10-01T17:59:38.525Z,39.13
2022-10-01T18:00:27.823Z,37.90
2022-10-01T18:01:01.795Z,41.67
2022-10-01T18:01:36.838Z,43.40
2022-10-01T18:02:36.441Z,37.55
2022-10-01T18:03:08.111Z,43.40
2022-10-01T18:03:42.574Z,40.35
2022-10-01T18:04:17.894Z,39.17
2022-10-01T18:04:50.854Z,41.58
2022-10-01T18:05:25.109Z,38.85
2022-10-01T18:06:03.693Z,35.92
2022-10-01T18:06:38.413Z,37.15
2022-10-01T18:07:11.992Z,37.15
2022-10-01T18:07:47.077Z,40.88
2022-10-01T18:08:33.264Z,40.88
2022-10-01T18:09:17.469Z,41.17
2022-10-01T18:09:53.516Z,40.20
2022-10-01T18:10:27.097Z,38.70
2022-10-01T18:11:07.849Z,37.17
2022-10-01T18:11:42.217Z,39.55
2022-10-01T18:12:17.238Z,39.35
2022-10-01T18:12:51.037Z,38.75
2022-10-01T18:13:25.854Z,39.08
2022-10-01T18:14:01.475Z,42.85
2022-10-01T18:14:36.419Z,42.08
2022-10-01T18:15:11.308Z,45.22
2022-10-01T18:15:46.731Z,42.47
2022-10-01T18:16:20.071Z,40.58
2022-10-01T18:16:54.219Z,39.88
2022-10-01T18:17:29.195Z,41.28
2022-10-01T18:19:53.663Z,40.88
2022-10-01T18:20:30.519Z,42.55
2022-10-01T18:21:06.200Z,47.25
2022-10-01T18:21:41.807Z,37.67
2022-10-01T18:22:14.931Z,41.75
2022-10-01T18:22:49.787Z,44.38
2022-10-01T18:23:26.620Z,42.42
2022-10-01T18:24:04.776Z,41.92
2022-10-01T18:24:38.363Z,42.17
2022-10-01T18:25:14.046Z,41.58
2022-10-01T18:25:50.596Z,40.60
2022-10-01T18:26:24.389Z,39.40
2022-10-01T18:26:58.386Z,42.10
2022-10-01T18:27:32.440Z,43.25
2022-10-01T18:28:05.670Z,42.00
2022-10-01T18:28:40.319Z,38.72
2022-10-01T18:29:18.127Z,41.55
2022-10-01T18:29:52.004Z,37.42
2022-10-01T18:30:27.674Z,41.83
2022-10-01T18:31:19.429Z,43.70
2022-10-01T18:31:56.566Z,40.95
2022-10-01T18:32:39.795Z,44.95
2022-10-01T18:33:16.448Z,42.47
2022-10-01T18:33:52.754Z,45.72
2022-10-01T18:34:32.827Z,42.28
2022-10-01T18:35:18.960Z,40.95
2022-10-01T18:35:59.705Z,41.10
2022-10-01T18:36:42.833Z,44.90
2022-10-01T18:37:30.216Z,40.63
2022-10-01T18:38:10.466Z,41.30
2022-10-01T18:39:32.721Z,37.63
2022-10-01T18:40:11.718Z,42.63
2022-10-01T18:40:50.063Z,41.92
2022-10-01T18:41:32.759Z,45.97
2022-10-01T18:42:18.980Z,39.95
2022-10-01T18:42:58.020Z,42.70
2022-10-01T18:43:35.273Z,42.05
2022-10-01T18:44:19.381Z,42.10
2022-10-01T18:44:58.073Z,40.67
2022-10-01T18:45:48.266Z,41.65
2022-10-01T18:46:39.647Z,43.35
2022-10-01T18:47:25.600Z,40.47
2022-10-01T18:48:18.365Z,41.17
2022-10-01T18:49:03.058Z,42.50
2022-10-01T18:50:25.789Z,42.58
2022-10-01T18:51:06.498Z,42.55
2022-10-01T18:51:53.969Z,40.63
2022-10-01T18:52:39.037Z,42.15
2022-10-01T18:53:51.930Z,42.10
2022-10-01T18:54:50.338Z,38.72
2022-10-01T18:55:50.673Z,38.25
2022-10-01T18:56:31.055Z,42.03
2022-10-01T18:57:14.893Z,38.63
2022-10-01T18:58:02.675Z,34.78
2022-10-01T18:59:01.334Z,33.60
2022-10-01T19:00:03.425Z,34.38
2022-10-01T19:00:44.914Z,30.65
2022-10-01T19:01:30.695Z,26.67
2022-10-01T19:02:31.087Z,31.67
2022-10-01T19:03:29.590Z,30.10
2022-10-01T19:04:26.967Z,26.38
2022-10-01T19:05:28.946Z,26.13
2022-10-01T19:06:16.673Z,28.55
2022-10-01T19:07:03.944Z,27.10
2022-10-01T19:07:52.320Z,24.77
2022-10-01T19:08:41.840Z,25.90
2022-10-01T19:09:40.726Z,26.13
2022-10-01T19:10:24.252Z,27.70
2022-10-01T19:11:05.936Z,25.25
2022-10-01T19:11:48.791Z,25.38
2022-10-01T19:12:38.389Z,26.42
2022-10-01T19:13:21.529Z,28.55
2022-10-01T19:14:09.729Z,26.48
2022-10-01T19:14:56.616Z,26.88
2022-10-01T19:15:41.176Z,27.75
2022-10-01T19:16:24.372Z,28.95
2022-10-01T19:17:09.145Z,28.08
2022-10-01T19:17:51.666Z,27.60
2022-10-01T19:18:49.830Z,24.25
2022-10-01T19:19:35.584Z,24.48
2022-10-01T19:20:28.281Z,21.25
2022-10-01T19:21:16.527Z,24.55
2022-10-01T19:22:00.208Z,20.55
2022-10-01T19:22:42.864Z,20.17
2022-10-01T19:23:41.000Z,23.00
2022-10-01T19:24:55.798Z,17.50
2022-10-01T19:25:36.644Z,17.38
2022-10-01T19:26:18.585Z,20.40
2022-10-01T19:27:01.200Z,17.88
2022-10-01T19:27:49.332Z,16.65
2022-10-01T19:28:36.451Z,15.85
2022-10-01T19:29:28.753Z,19.30
2022-10-01T19:30:06.655Z,15.73
2022-10-01T19:30:59.597Z,16.35
2022-10-01T19:31:39.949Z,17.25
2022-10-01T19:32:21.028Z,17.50
2022-10-01T19:32:58.256Z,15.27
2022-10-01T19:33:37.161Z,17.48
2022-10-01T19:34:16.299Z,15.65
2022-10-01T19:34:55.372Z,14.52
2022-10-01T19:35:32.646Z,17.90
2022-10-01T19:36:09.259Z,15.65
2022-10-01T19:36:48.975Z,14.77
2022-10-01T19:37:31.514Z,17.10
2022-10-01T19:38:07.745Z,17.35
2022-10-01T19:38:43.184Z,14.50
2022-10-01T19:39:23.426Z,16.70
2022-10-01T19:40:42.299Z,14.15
2022-10-01T19:41:22.227Z,14.68
2022-10-01T19:42:01.352Z,16.88
2022-10-01T19:42:39.154Z,14.02
2022-10-01T19:43:19.857Z,19.77
2022-10-01T19:43:57.172Z,15.85
2022-10-01T19:44:37.530Z,15.38
2022-10-01T19:45:21.640Z,15.63
2022-10-01T19:46:02.216Z,17.90
2022-10-01T19:46:38.448Z,15.05
2022-10-01T19:47:24.901Z,14.13
2022-10-01T19:48:10.486Z,15.38
2022-10-01T19:48:51.781Z,17.02
2022-10-01T19:49:32.452Z,15.95
2022-10-01T19:50:22.045Z,14.50
2022-10-01T19:51:03.644Z,16.67
2022-10-01T19:51:41.531Z,18.77
2022-10-01T19:52:18.820Z,17.67
2022-10-01T19:52:57.948Z,17.80
2022-10-01T19:53:38.009Z,15.90
2022-10-01T19:54:17.607Z,14.45
2022-10-01T19:54:56.451Z,15.10
2022-10-01T19:55:38.853Z,16.50
2022-10-01T19:56:18.979Z,16.05
2022-10-01T19:56:56.885Z,16.15
2022-10-01T19:57:35.637Z,16.10
2022-10-01T19:58:17.747Z,13.43
2022-10-01T19:58:52.620Z,19.58
2022-10-01T19:59:30.081Z,16.40
2022-10-01T20:00:13.103Z,14.32
2022-10-01T20:00:51.507Z,17.95
2022-10-01T20:01:30.690Z,18.67
2022-10-01T20:02:12.962Z,16.38
2022-10-01T20:02:54.730Z,15.07
2022-10-01T20:03:39.518Z,16.02
2022-10-01T20:04:20.303Z,14.50
2022-10-01T20:05:01.071Z,15.63
2022-10-01T20:05:44.741Z,16.85
2022-10-01T20:06:25.566Z,18.20
2022-10-01T20:07:05.811Z,18.38
2022-10-01T20:08:29.610Z,17.10
2022-10-01T20:09:10.723Z,16.20
2022-10-01T20:09:46.457Z,15.18
2022-10-01T20:10:33.903Z,15.38
2022-10-01T20:11:22.446Z,16.30
2022-10-01T20:12:06.960Z,17.83
2022-10-01T20:12:47.449Z,16.08
2022-10-01T20:13:36.794Z,15.65
2022-10-01T20:14:41.404Z,19.67
2022-10-01T20:15:27.902Z,18.13
2022-10-01T20:16:12.276Z,15.10
2022-10-01T20:16:49.561Z,17.13
2022-10-01T20:17:32.846Z,13.68
2022-10-01T20:18:17.580Z,18.25
2022-10-01T20:18:57.699Z,17.00
2022-10-01T20:19:40.396Z,18.10
2022-10-01T20:20:22.681Z,18.63
2022-10-01T20:21:15.803Z,17.58
2022-10-01T20:21:59.751Z,16.60
2022-10-01T20:22:41.024Z,16.63
2022-10-01T20:23:33.960Z,16.13
2022-10-01T20:24:24.273Z,18.13
2022-10-01T20:25:05.048Z,16.88
2022-10-01T20:25:45.621Z,16.20
2022-10-01T20:26:30.487Z,17.73
2022-10-01T20:27:17.578Z,20.95
2022-10-01T20:28:02.629Z,22.25
2022-10-01T20:28:47.864Z,17.45
2022-10-01T20:29:33.425Z,17.98
2022-10-01T20:30:13.005Z,16.33
2022-10-01T20:30:58.734Z,18.00
2022-10-01T20:31:40.897Z,19.77
2022-10-01T20:32:19.523Z,19.98
2022-10-01T20:33:02.295Z,18.88
2022-10-01T20:33:46.283Z,19.35
2022-10-01T20:34:33.430Z,20.58
2022-10-01T20:35:22.943Z,18.45
2022-10-01T20:36:04.051Z,16.95
2022-10-01T20:36:44.412Z,19.15
2022-10-01T20:37:35.553Z,17.80
2022-10-01T20:38:15.547Z,18.30
2022-10-01T20:38:54.731Z,19.70
2022-10-01T20:39:32.209Z,18.13
2022-10-01T20:40:14.847Z,18.35
2022-10-01T20:40:54.485Z,17.90
2022-10-01T20:41:32.140Z,17.10
2022-10-01T20:42:06.937Z,19.88
2022-10-01T20:42:46.768Z,18.83
2022-10-01T20:43:32.006Z,15.77
2022-10-01T20:44:10.480Z,14.50
2022-10-01T20:44:46.372Z,18.67
2022-10-01T20:45:25.119Z,16.00
2022-10-01T20:46:04.451Z,16.50
2022-10-01T20:46:45.093Z,17.95
2022-10-01T20:47:26.212Z,16.25
2022-10-01T20:48:06.712Z,16.58
2022-10-01T20:48:45.451Z,15.10
2022-10-01T20:49:30.357Z,14.45
2022-10-01T20:50:09.645Z,18.17
2022-10-01T20:50:46.536Z,13.93
2022-10-01T20:51:30.289Z,15.43
2022-10-01T20:52:11.995Z,13.23
2022-10-01T20:52:53.779Z,16.42
2022-10-01T20:53:36.451Z,14.85
2022-10-01T20:54:15.000Z,15.40
2022-10-01T20:54:52.619Z,16.48
2022-10-01T20:55:37.786Z,16.52
2022-10-01T20:56:16.216Z,15.05
2022-10-01T20:57:00.768Z,14.25
2022-10-01T20:57:42.205Z,14.55
2022-10-01T20:58:20.595Z,15.05
2022-10-01T20:58:59.439Z,13.90
2022-10-01T20:59:38.001Z,15.43
2022-10-01T21:00:21.483Z,14.95
2022-10-01T21:01:06.037Z,14.88
2022-10-01T21:01:53.471Z,12.77
2022-10-01T21:02:35.101Z,16.60
2022-10-01T21:03:15.542Z,14.63
2022-10-01T21:03:54.906Z,15.27
2022-10-01T21:04:34.111Z,16.17
2022-10-01T21:05:15.789Z,15.57
2022-10-01T21:05:54.507Z,18.27
2022-10-01T21:06:36.170Z,14.73
2022-10-01T21:07:21.793Z,13.80
2022-10-01T21:08:02.087Z,15.45
2022-10-01T21:08:43.275Z,15.43
2022-10-01T21:09:25.205Z,14.07
2022-10-01T21:10:04.670Z,15.98
2022-10-01T21:10:44.486Z,18.30
2022-10-01T21:11:25.037Z,17.60
2022-10-01T21:12:07.135Z,14.43
2022-10-01T21:12:45.533Z,14.38
2022-10-01T21:13:26.926Z,13.70
2022-10-01T21:14:12.045Z,15.38
2022-10-01T21:14:50.114Z,16.27
2022-10-01T21:15:28.207Z,15.75
2022-10-01T21:16:15.385Z,13.63
2022-10-01T21:17:26.643Z,15.98
2022-10-01T21:18:10.410Z,14.23
2022-10-01T21:18:56.559Z,24.83
2022-10-01T21:19:53.982Z,21.83
2022-10-01T21:20:57.004Z,17.02
2022-10-01T21:21:46.812Z,18.75
2022-10-01T21:22:35.043Z,13.85
2022-10-01T21:23:24.784Z,15.45
2022-10-01T21:24:12.721Z,13.85
2022-10-01T21:24:58.464Z,14.75
2022-10-01T21:25:43.115Z,13.77
2022-10-01T21:26:26.121Z,13.43
2022-10-01T21:27:15.013Z,12.85
2022-10-01T21:28:19.362Z,12.38
2022-10-01T21:29:17.999Z,16.52
2022-10-01T21:30:08.504Z,13.80
2022-10-01T21:30:57.907Z,13.30
2022-10-01T21:31:46.885Z,15.02
2022-10-01T21:32:31.954Z,18.55
2022-10-01T21:33:17.108Z,14.68
2022-10-01T21:33:54.370Z,13.07
2022-10-01T21:34:38.857Z,14.50
2022-10-01T21:35:26.948Z,15.07
2022-10-01T21:36:08.061Z,15.73
2022-10-01T21:36:55.735Z,14.65
2022-10-01T21:37:34.643Z,14.50
2022-10-01T21:38:19.476Z,13.75
2022-10-01T21:38:58.978Z,14.60
2022-10-01T21:39:41.177Z,14.55
2022-10-01T21:40:25.395Z,14.25
2022-10-01T21:41:30.107Z,14.95
2022-10-01T21:42:16.203Z,13.68
2022-10-01T21:42:56.813Z,13.77
2022-10-01T21:43:45.718Z,14.40
2022-10-01T21:44:48.608Z,12.88
2022-10-01T21:45:34.693Z,13.60
2022-10-01T21:46:14.709Z,12.52
2022-10-01T21:46:55.427Z,12.73
2022-10-01T21:47:45.150Z,13.15
2022-10-01T21:48:33.052Z,13.80
2022-10-01T21:49:15.039Z,16.02
2022-10-01T21:50:02.686Z,18.92
2022-10-01T21:50:50.132Z,14.10
2022-10-01T21:51:36.051Z,14.98
2022-10-01T21:52:22.207Z,21.85
2022-10-01T21:53:17.170Z,14.88
2022-10-01T21:54:09.994Z,14.20
2022-10-01T21:55:02.506Z,14.73
2022-10-01T21:55:48.948Z,12.88
2022-10-01T21:56:55.728Z,13.68
2022-10-01T21:57:48.968Z,15.45
2022-10-01T21:58:36.517Z,12.10
2022-10-01T21:59:24.090Z,11.95
2022-10-01T22:00:16.119Z,13.25
2022-10-01T22:00:55.670Z,13.25
2022-10-01T22:01:50.423Z,12.60
2022-10-01T22:02:35.465Z,14.95
2022-10-01T22:03:19.249Z,12.73